(°C)
22°
21°
21°
21°
21°
21°
21°
(°C)
22°
22°
22°
22°
22°
21°
21°
WNW
NW
NW
NW
NW
NNW
NNW
(km/h)
3-5
2-4
2-4
2-5
2-5
2-5
2-5
(mm)
0
0
0
0
0
0
0
(%)
2
2
2
1
1
1
0

Elevazione del sole

/ -45°
sun-icon
UV 6
06:38
18:41
Luna crescente (19°)
08:22
19:52

METAR per San Diego (KSAN)

Ora Condizioni Temperatura/
Punto di rugiada
Vento Visibilità Meteo Nuvole Pressione Cambiamento Grezzo
VFR 21.7°C / 19.4°C 320º 3kt >10km - Few Clouds 500ft 1012 - KSAN 280451Z 32003KT 8SM FEW005 22/19 A2990 RMK AO2 SLP124 T02170194
VFR 22.2°C / 19.4°C 290º 3kt >10km - Few Clouds 500ft 1012 - KSAN 280351Z 29003KT 9SM FEW005 22/19 A2989 RMK AO2 SLP120 T02220194
VFR 22.2°C / 20°C 320º 5kt >10km - Few Clouds 500ft
Few Clouds 15000ft
1011 - KSAN 280251Z 32005KT 9SM FEW005 FEW150 22/20 A2987 RMK AO2 SLP115 T02220200 53010
VFR 22.8°C / 20°C 300º 7kt >10km - Few Clouds 400ft
Few Clouds 15000ft
1011 - KSAN 280151Z 30007KT 10SM FEW004 FEW150 23/20 A2986 RMK AO2 SLP111 T02280200
VFR 24.4°C / 18.3°C 310º 4kt >10km - Few Clouds 400ft
Few Clouds 15000ft
1010 - KSAN 280051Z 31004KT 10SM FEW004 FEW150 24/18 A2984 RMK AO2 SLP105 T02440183
VFR 25.6°C / 18.9°C 290º 9kt >10km - Few Clouds 400ft
Few Clouds 4000ft
Scattered Clouds 15000ft
1010 - KSAN 272351Z 29009KT 10SM FEW004 FEW040 SCT150 26/19 A2984 RMK AO2 SLP104 T02560189 10294 20250 56006
VFR 26.1°C / 19.4°C 290º 10kt >10km - Few Clouds 400ft
Few Clouds 4000ft
Scattered Clouds 15000ft
1010 - KSAN 272251Z 29010KT 10SM FEW004 FEW040 SCT150 26/19 A2984 RMK AO2 SLP105 T02610194
VFR 25.6°C / 19.4°C 280º 9kt >10km - Few Clouds 400ft
Few Clouds 4000ft
1010 - KSAN 272151Z 28009KT 10SM FEW004 FEW040 26/19 A2984 RMK AO2 SLP105 T02560194
VFR 26.1°C / 20°C 290º 12kt >10km - Few Clouds 400ft
Few Clouds 4000ft
Scattered Clouds 25000ft
1011 - KSAN 272051Z 29012KT 9SM FEW004 FEW040 SCT250 26/20 A2986 RMK AO2 SLP110 T02610200 58009
VFR 26.1°C / 18.9°C 300º 13kt >10km - Few Clouds 500ft
Few Clouds 4000ft
1011 - KSAN 271951Z 30013KT 10SM FEW005 FEW040 26/19 A2987 RMK AO2 SLP113 T02610189
VFR 26°C / 19°C 290º 13kt >10km - Few Clouds 500ft
Few Clouds 4000ft
- KSAN 271947Z 29013KT 10SM FEW005 FEW040 26/19 A2987 RMK AO2
VFR 26.7°C / 18.3°C 320º 9kt >10km - Few Clouds 25000ft 1011 - KSAN 271851Z 32009KT 10SM FEW250 27/18 A2988 RMK AO2 SLP119 T02670183
VFR 28.3°C / 18.9°C variable 0kt >10km - Few Clouds 25000ft 1011 - KSAN 271751Z 00000KT 10SM FEW250 28/19 A2988 RMK AO2 SLP119 T02830189 10283 20200 58002
VFR 26.1°C / 18.3°C 250º 4kt >10km - Few Clouds 20000ft 1012 - KSAN 271651Z 25004KT 10SM FEW200 26/18 A2989 RMK AO2 SLP123 T02610183
VFR 23.3°C / 18.9°C 360º 3kt >10km - Few Clouds 400ft
Few Clouds 20000ft
1012 - KSAN 271551Z 36003KT 10SM FEW004 FEW200 23/19 A2989 RMK AO2 SLP122 T02330189
VFR 21.1°C / 18.9°C 350º 4kt >10km - Few Clouds 400ft 1012 - KSAN 271451Z 35004KT 10SM FEW004 21/19 A2989 RMK AO2 SLP121 T02110189 53008
VFR 20.6°C / 18.9°C 20º 4kt >10km - Few Clouds 600ft 1011 - KSAN 271351Z 02004KT 8SM FEW006 21/19 A2988 RMK AO2 SLP117 T02060189
VFR 20.6°C / 18.9°C variable 0kt >10km - Few Clouds 600ft 1011 - KSAN 271251Z 00000KT 9SM FEW006 21/19 A2987 RMK AO2 SLP114 T02060189
VFR 20.6°C / 18.9°C variable 0kt >10km - Few Clouds 600ft 1011 - KSAN 271151Z 00000KT 9SM FEW006 21/19 A2986 RMK AO2 SLP113 T02060189 10217 20206 56004
VFR 21.1°C / 19.4°C variable 0kt >10km - Scattered Clouds 700ft 1011 - KSAN 271051Z 00000KT 9SM SCT007 21/19 A2987 RMK AO2 SLP113 T02110194
VFR 21.1°C / 19.4°C 330º 3kt >10km - Scattered Clouds 700ft - KSAN 270959Z 33003KT 10SM SCT007 21/19 A2987 RMK AO2 T02110194
IFR 21.7°C / 19.4°C 360º 3kt >10km - Broken Clouds 700ft 1011 - KSAN 270951Z 36003KT 10SM BKN007 22/19 A2987 RMK AO2 SLP115 T02170194
IFR 21.1°C / 18.9°C variable 0kt >10km - Broken Clouds 700ft - KSAN 270931Z 00000KT 10SM BKN007 21/19 A2988 RMK AO2 T02110189
VFR 21.1°C / 18.9°C variable 0kt >10km - Few Clouds 600ft 1011 - KSAN 270851Z 00000KT 10SM FEW006 21/19 A2988 RMK AO2 SLP116 T02110189 56001

VFR

21.7°C / 19.4°C

[Più]
Vento 320º 3kt
Visibilità >10km
Meteo -
Nuvole Few Clouds 500ft
Pressione 1012
Cambiamento -
Grezzo KSAN 280451Z 32003KT 8SM FEW005 22/19 A2990 RMK AO2 SLP124 T02170194

VFR

22.2°C / 19.4°C

[Più]
Vento 290º 3kt
Visibilità >10km
Meteo -
Nuvole Few Clouds 500ft
Pressione 1012
Cambiamento -
Grezzo KSAN 280351Z 29003KT 9SM FEW005 22/19 A2989 RMK AO2 SLP120 T02220194

VFR

22.2°C / 20°C

[Più]
Vento 320º 5kt
Visibilità >10km
Meteo -
Nuvole Few Clouds 500ft
Few Clouds 15000ft
Pressione 1011
Cambiamento -
Grezzo KSAN 280251Z 32005KT 9SM FEW005 FEW150 22/20 A2987 RMK AO2 SLP115 T02220200 53010

VFR

22.8°C / 20°C

[Più]
Vento 300º 7kt
Visibilità >10km
Meteo -
Nuvole Few Clouds 400ft
Few Clouds 15000ft
Pressione 1011
Cambiamento -
Grezzo KSAN 280151Z 30007KT 10SM FEW004 FEW150 23/20 A2986 RMK AO2 SLP111 T02280200

VFR

24.4°C / 18.3°C

[Più]
Vento 310º 4kt
Visibilità >10km
Meteo -
Nuvole Few Clouds 400ft
Few Clouds 15000ft
Pressione 1010
Cambiamento -
Grezzo KSAN 280051Z 31004KT 10SM FEW004 FEW150 24/18 A2984 RMK AO2 SLP105 T02440183

VFR

25.6°C / 18.9°C

[Più]
Vento 290º 9kt
Visibilità >10km
Meteo -
Nuvole Few Clouds 400ft
Few Clouds 4000ft
Scattered Clouds 15000ft
Pressione 1010
Cambiamento -
Grezzo KSAN 272351Z 29009KT 10SM FEW004 FEW040 SCT150 26/19 A2984 RMK AO2 SLP104 T02560189 10294 20250 56006

VFR

26.1°C / 19.4°C

[Più]
Vento 290º 10kt
Visibilità >10km
Meteo -
Nuvole Few Clouds 400ft
Few Clouds 4000ft
Scattered Clouds 15000ft
Pressione 1010
Cambiamento -
Grezzo KSAN 272251Z 29010KT 10SM FEW004 FEW040 SCT150 26/19 A2984 RMK AO2 SLP105 T02610194

VFR

25.6°C / 19.4°C

[Più]
Vento 280º 9kt
Visibilità >10km
Meteo -
Nuvole Few Clouds 400ft
Few Clouds 4000ft
Pressione 1010
Cambiamento -
Grezzo KSAN 272151Z 28009KT 10SM FEW004 FEW040 26/19 A2984 RMK AO2 SLP105 T02560194

VFR

26.1°C / 20°C

[Più]
Vento 290º 12kt
Visibilità >10km
Meteo -
Nuvole Few Clouds 400ft
Few Clouds 4000ft
Scattered Clouds 25000ft
Pressione 1011
Cambiamento -
Grezzo KSAN 272051Z 29012KT 9SM FEW004 FEW040 SCT250 26/20 A2986 RMK AO2 SLP110 T02610200 58009

VFR

26.1°C / 18.9°C

[Più]
Vento 300º 13kt
Visibilità >10km
Meteo -
Nuvole Few Clouds 500ft
Few Clouds 4000ft
Pressione 1011
Cambiamento -
Grezzo KSAN 271951Z 30013KT 10SM FEW005 FEW040 26/19 A2987 RMK AO2 SLP113 T02610189

VFR

26°C / 19°C

[Più]
Vento 290º 13kt
Visibilità >10km
Meteo -
Nuvole Few Clouds 500ft
Few Clouds 4000ft
Pressione
Cambiamento -
Grezzo KSAN 271947Z 29013KT 10SM FEW005 FEW040 26/19 A2987 RMK AO2

VFR

26.7°C / 18.3°C

[Più]
Vento 320º 9kt
Visibilità >10km
Meteo -
Nuvole Few Clouds 25000ft
Pressione 1011
Cambiamento -
Grezzo KSAN 271851Z 32009KT 10SM FEW250 27/18 A2988 RMK AO2 SLP119 T02670183

VFR

28.3°C / 18.9°C

[Più]
Vento variable 0kt
Visibilità >10km
Meteo -
Nuvole Few Clouds 25000ft
Pressione 1011
Cambiamento -
Grezzo KSAN 271751Z 00000KT 10SM FEW250 28/19 A2988 RMK AO2 SLP119 T02830189 10283 20200 58002

VFR

26.1°C / 18.3°C

[Più]
Vento 250º 4kt
Visibilità >10km
Meteo -
Nuvole Few Clouds 20000ft
Pressione 1012
Cambiamento -
Grezzo KSAN 271651Z 25004KT 10SM FEW200 26/18 A2989 RMK AO2 SLP123 T02610183

VFR

23.3°C / 18.9°C

[Più]
Vento 360º 3kt
Visibilità >10km
Meteo -
Nuvole Few Clouds 400ft
Few Clouds 20000ft
Pressione 1012
Cambiamento -
Grezzo KSAN 271551Z 36003KT 10SM FEW004 FEW200 23/19 A2989 RMK AO2 SLP122 T02330189

VFR

21.1°C / 18.9°C

[Più]
Vento 350º 4kt
Visibilità >10km
Meteo -
Nuvole Few Clouds 400ft
Pressione 1012
Cambiamento -
Grezzo KSAN 271451Z 35004KT 10SM FEW004 21/19 A2989 RMK AO2 SLP121 T02110189 53008

VFR

20.6°C / 18.9°C

[Più]
Vento 20º 4kt
Visibilità >10km
Meteo -
Nuvole Few Clouds 600ft
Pressione 1011
Cambiamento -
Grezzo KSAN 271351Z 02004KT 8SM FEW006 21/19 A2988 RMK AO2 SLP117 T02060189

VFR

20.6°C / 18.9°C

[Più]
Vento variable 0kt
Visibilità >10km
Meteo -
Nuvole Few Clouds 600ft
Pressione 1011
Cambiamento -
Grezzo KSAN 271251Z 00000KT 9SM FEW006 21/19 A2987 RMK AO2 SLP114 T02060189

VFR

20.6°C / 18.9°C

[Più]
Vento variable 0kt
Visibilità >10km
Meteo -
Nuvole Few Clouds 600ft
Pressione 1011
Cambiamento -
Grezzo KSAN 271151Z 00000KT 9SM FEW006 21/19 A2986 RMK AO2 SLP113 T02060189 10217 20206 56004

VFR

21.1°C / 19.4°C

[Più]
Vento variable 0kt
Visibilità >10km
Meteo -
Nuvole Scattered Clouds 700ft
Pressione 1011
Cambiamento -
Grezzo KSAN 271051Z 00000KT 9SM SCT007 21/19 A2987 RMK AO2 SLP113 T02110194

VFR

21.1°C / 19.4°C

[Più]
Vento 330º 3kt
Visibilità >10km
Meteo -
Nuvole Scattered Clouds 700ft
Pressione
Cambiamento -
Grezzo KSAN 270959Z 33003KT 10SM SCT007 21/19 A2987 RMK AO2 T02110194

IFR

21.7°C / 19.4°C

[Più]
Vento 360º 3kt
Visibilità >10km
Meteo -
Nuvole Broken Clouds 700ft
Pressione 1011
Cambiamento -
Grezzo KSAN 270951Z 36003KT 10SM BKN007 22/19 A2987 RMK AO2 SLP115 T02170194

IFR

21.1°C / 18.9°C

[Più]
Vento variable 0kt
Visibilità >10km
Meteo -
Nuvole Broken Clouds 700ft
Pressione
Cambiamento -
Grezzo KSAN 270931Z 00000KT 10SM BKN007 21/19 A2988 RMK AO2 T02110189

VFR

21.1°C / 18.9°C

[Più]
Vento variable 0kt
Visibilità >10km
Meteo -
Nuvole Few Clouds 600ft
Pressione 1011
Cambiamento -
Grezzo KSAN 270851Z 00000KT 10SM FEW006 21/19 A2988 RMK AO2 SLP116 T02110189 56001

TAF per San Diego (KSAN)

From till


From till Wind variable 4kt. Visibility 10km or more. Few Clouds 500ft.
From till Wind variable 4kt. Visibility 9700m. Mist . Broken Clouds 600ft.
From till Wind 270º 5kt. Visibility 10km or more. Scattered Clouds 900ft.
From till Wind 280º 10kt. Visibility 10km or more. Scattered Clouds 15000ft.
From till Wind variable 4kt. Visibility 10km or more. Few Clouds 20000ft.

Grezzo: KSAN 280303Z 2803/2906 VRB04KT P6SM FEW005 FM281000 VRB04KT 6SM BR BKN006 FM281600 27005KT P6SM SCT009 FM281900 28010KT P6SM SCT150 FM290300 VRB04KT P6SM FEW200

Radar e nowcasting per San Diego

Pioviggine
Lieve
Moderato
Forte
Molto forte
Grandine

Il segnaposto è situato a San Diego. Questa animazione mostra il radar delle precipitazioni per l'ultima ora, nonché una previsione 1h. Una pioviggine o una leggera caduta di neve potrebbero essere invisibili per il radar. L'intensità delle precipitazioni è codificata a colori, dal blu chiaro all'arancione.

Immagine satellitare per San Diego, Stati Uniti

Il segnaposto è situato a San Diego. [Più]

L'immagine satellitare in tempo reale combina la luce visibile durante il giorno con la radiazione infrarossa durante la notte. Di notte l'immagine non è scura poiché i raggi infrarossi possono rilevare differenze di temperatura. Purtroppo, le nuvole basse e la nebbia sono difficili da distinguere dalla temperatura del suolo e possono pertanto essere quasi invisibili durante la notte. Le immagini satellitari Meteosat per l'Europa vengono aggiornate in tempo reale ogni 5 minuti. Le immagini GOES-16 / GOES-17 (Nord e Sud America) e Himawari (Asia) vengono aggiornate ogni 10 minuti.

Tornare su